Latest Weather Observations for Gelantipy

IDV60801

Issued at 7:32 am EST Wednesday 27 July 2016 (issued every 30 minutes, with the page automatically refreshed every 10 minutes)

About weather observations | Map of weather stations | Latest weather observations for VIC | Other Formats
Station Details ID: 084142 Name: GELANTIPY Lat: -37.22 Lon: 148.26 Height: 755.0 m
Data from the previous 72 hours. | See also: Recent months at Gelantipy
Date/Time
EST
Temp
°C
App
Temp
°C
Dew
Point
°C
Rel
Hum
%
Delta-T
°C
Wind Press
QNH
hPa
Press
MSL
hPa
Rain since
9am
mm
Dir  Spd
km/h
Gust
km/h
Spd
kts
Gust
kts
27/07:30am 3.7 0.9 -0.3 75 1.6 ENE 4 7 2 4 1007.1 1007.9 0.0
27/07:00am 4.7 2.3 -0.5 69 2.1 NW 2 6 1 3 1006.3 1007.2 0.0
27/06:30am 5.0 0.1 -0.4 68 2.1 N 15 20 8 11 1005.3 1006.2 0.0
27/06:00am 5.7 -0.1 -0.1 66 2.3 NNW 20 32 11 17 1004.8 1005.6 0.0
27/05:30am 4.4 -0.4 0.2 74 1.7 N 15 19 8 10 1004.8 1005.6 0.0
27/05:00am 4.8 -0.4 0.2 72 1.9 NNE 17 20 9 11 1004.3 1005.1 0.0
27/04:30am 4.7 0.2 -0.1 71 1.9 NNE 13 19 7 10 1004.1 1005.0 0.0
27/04:00am 5.2 0.0 0.0 69 2.1 N 17 30 9 16 1003.8 1004.6 0.0
27/03:30am 4.9 0.4 -0.1 70 2.0 N 13 19 7 10 1004.0 1004.9 0.0
27/03:00am 5.5 -0.7 -0.5 65 2.4 NNW 22 35 12 19 1004.3 1005.1 0.0
27/02:30am 5.2 -1.1 -0.8 65 2.4 NNW 22 32 12 17 1004.8 1005.6 0.0
27/02:00am 5.5 -0.4 -1.0 63 2.6 NNW 20 33 11 18 1005.0 1005.8 0.0
27/01:30am 5.0 -1.0 -1.2 64 2.4 NNW 20 37 11 20 1005.3 1006.2 0.0
27/01:00am 5.1 -0.9 -1.8 61 2.7 NNW 20 32 11 17 1005.1 1006.0 0.0
27/12:30am 5.4 -3.9 -2.4 57 3.0 NNW 37 56 20 30 1005.7 1006.5 0.0
27/12:00am 5.1 -5.0 -2.2 59 2.8 NW 41 65 22 35 1005.8 1006.6 0.0
 
Date/Time
EST
Temp
°C
App
Temp
°C
Dew
Point
°C
Rel
Hum
%
Delta-T
°C
Wind Press
QNH
hPa
Press
MSL
hPa
Rain since
9am
mm
Dir  Spd
km/h
Gust
km/h
Spd
kts
Gust
kts
26/11:30pm 4.8 -3.6 -2.3 60 2.7 NW 32 52 17 28 1005.9 1006.7 0.0
26/11:17pm 4.8 -2.8 -2.1 61 2.6 NW 28 50 15 27 1006.2 1007.0 0.0
26/11:00pm 4.4 -1.4 -1.8 64 2.4 NW 19 41 10 22 1006.6 1007.5 0.0
26/10:30pm 4.5 -1.9 -1.9 63 2.4 NW 22 43 12 23 1006.7 1007.6 0.0
26/10:00pm 4.5 -4.3 -1.3 66 2.2 NW 35 56 19 30 1006.6 1007.5 0.0
26/09:30pm 4.9 -3.5 -1.1 65 2.3 NW 33 52 18 28 1006.7 1007.6 0.0
26/09:00pm 5.2 -2.3 -1.5 62 2.6 NW 28 46 15 25 1007.1 1007.9 0.0
26/08:32pm 5.1 -3.4 -1.6 62 2.6 NW 33 52 18 28 1007.2 1008.0 0.0
26/08:30pm 5.1 -3.4 -1.6 62 2.6 NNW 33 50 18 27 1007.2 1008.0 0.0
26/08:02pm 4.9 -2.6 -1.1 65 2.3 NNW 28 46 15 25 1007.6 1008.5 0.0
26/08:00pm 5.0 -2.9 -1.2 64 2.4 NW 30 44 16 24 1007.6 1008.5 0.0
26/07:30pm 4.6 -2.1 -1.0 67 2.2 NNW 24 41 13 22 1007.9 1008.8 0.0
26/07:17pm 4.6 -2.8 -1.0 67 2.2 NNW 28 52 15 28 1007.7 1008.6 0.0
26/07:00pm 4.6 -0.8 -1.0 67 2.2 NNW 17 35 9 19 1008.3 1009.2 0.0
26/06:30pm 4.4 -0.2 -1.4 66 2.2 N 13 24 7 13 1008.6 1009.5 0.0
26/06:00pm 4.6 0.3 -1.4 65 2.3 N 11 24 6 13 1008.6 1009.5 0.0
26/05:30pm 4.8 0.9 -1.4 64 2.4 NNE 9 20 5 11 1008.5 1009.3 0.0
26/05:00pm 5.1 0.2 -0.7 66 2.3 N 15 26 8 14 1008.7 1009.6 0.0
26/04:30pm 5.6 -0.1 -1.1 62 2.6 N 19 30 10 16 1008.9 1009.8 0.0
26/04:00pm 6.7 1.6 -1.9 54 3.4 NW 15 30 8 16 1008.8 1009.7 0.0
26/03:30pm 7.0 0.2 -1.9 53 3.5 NNW 24 39 13 21 1008.9 1009.8 0.0
26/03:00pm 7.7 1.9 -1.8 51 3.8 NNW 19 33 10 18 1008.7 1009.6 0.0
26/02:30pm 8.1 2.3 -1.4 51 3.8 NW 19 30 10 16 1008.5 1009.3 0.0
26/02:00pm 6.3 -0.6 -2.8 52 3.5 NNW 24 41 13 22 1008.3 1009.2 0.0
26/01:30pm 6.6 1.8 -2.8 51 3.6 NNW 13 28 7 15 1008.8 1009.7 0.0
26/01:00pm 7.0 1.6 -1.7 54 3.4 NW 17 28 9 15 1009.1 1010.0 0.0
26/12:30pm 7.4 2.3 -2.3 50 3.8 NNW 15 26 8 14 1009.6 1010.6 0.0
26/12:00pm 6.6 2.2 -2.8 51 3.6 NNW 11 20 6 11 1010.0 1010.9 0.0
26/11:30am 6.3 1.1 -2.6 53 3.4 NW 15 28 8 15 1010.4 1011.3 0.0
26/11:00am 6.5 1.1 -1.6 56 3.2 WNW 17 30 9 16 1010.7 1011.6 0.0
26/10:30am 6.0 0.5 -2.3 55 3.2 NW 17 32 9 17 1010.9 1011.9 0.0
26/10:00am 5.5 -1.0 -2.6 56 3.1 NW 22 37 12 20 1011.2 1012.2 0.0
26/09:30am 5.4 -0.5 -2.0 59 2.8 NNW 19 41 10 22 1011.1 1012.1 0.0
26/09:00am 4.2 -0.7 -3.1 59 2.7 NNW 13 24 7 13 1011.0 1012.0 0.4
26/08:30am 3.8 -1.1 -3.5 59 2.6 NNW 13 30 7 16 1010.7 1011.6 0.4
26/08:00am 3.1 -3.2 -3.7 61 2.4 NW 20 28 11 15 1010.4 1011.3 0.4
26/07:30am 2.4 -3.2 -3.3 66 2.0 NW 17 22 9 12 1010.2 1011.1 0.4
26/07:00am 2.1 -3.2 -3.4 67 2.0 NW 15 24 8 13 1009.6 1010.6 0.4
26/06:30am 3.0 -2.7 -3.8 61 2.4 NW 17 26 9 14 1009.1 1010.0 0.4
26/06:00am 3.1 -3.5 -3.7 61 2.4 NW 22 35 12 19 1008.3 1009.2 0.4
26/05:30am 3.0 -2.3 -3.8 61 2.4 WNW 15 30 8 16 1008.2 1009.1 0.4
26/05:00am 2.9 -2.7 -2.6 67 2.0 WNW 17 22 9 12 1007.7 1008.6 0.4
26/04:30am 3.6 -2.6 -2.8 63 2.3 WNW 20 32 11 17 1007.6 1008.5 0.4
26/04:00am 3.9 -2.2 -2.7 62 2.4 NW 20 33 11 18 1006.8 1007.7 0.4
26/03:30am 4.1 -1.9 -2.7 61 2.5 W 19 32 10 17 1006.5 1007.4 0.4
26/03:00am 4.2 -2.3 -2.4 62 2.5 W 22 35 12 19 1006.3 1007.2 0.4
26/02:30am 4.5 -2.4 -2.4 61 2.6 WNW 24 37 13 20 1006.1 1006.9 0.4
26/02:00am 5.2 -4.0 -1.5 62 2.6 WNW 37 57 20 31 1005.9 1006.7 0.4
26/01:48am 5.3 -3.0 -1.6 61 2.7 WNW 32 54 17 29 1005.4 1006.3 0.4
26/01:43am 5.2 -2.2 -0.8 65 2.4 WNW 28 48 15 26 1005.3 1006.2 0.4
26/01:30am 4.9 0.0 1.7 80 1.3 W 17 28 9 15 1005.5 1006.4 0.4
26/01:00am 5.2 1.2 2.6 83 1.1 WSW 13 22 7 12 1005.1 1006.0 0.2
26/12:30am 5.9 0.0 2.0 76 1.7 WNW 22 43 12 23 1004.8 1005.6 0.0
26/12:00am 6.4 0.8 0.9 68 2.3 WNW 20 37 11 20 1004.6 1005.4 0.0
 
Date/Time
EST
Temp
°C
App
Temp
°C
Dew
Point
°C
Rel
Hum
%
Delta-T
°C
Wind Press
QNH
hPa
Press
MSL
hPa
Rain since
9am
mm
Dir  Spd
km/h
Gust
km/h
Spd
kts
Gust
kts
25/11:52pm 6.3 0.6 0.8 68 2.3 NW 20 46 11 25 1004.4 1005.2 0.0
25/11:30pm 6.1 -0.4 0.4 67 2.3 NW 24 41 13 22 1004.0 1004.9 0.0
25/11:06pm 6.4 -0.9 0.1 64 2.6 NNW 28 57 15 31 1003.4 1004.2 0.0
25/11:00pm 6.0 -0.5 0.6 68 2.2 NNW 24 54 13 29 1003.5 1004.3 0.0
25/10:31pm 6.2 -1.1 0.3 66 2.4 NNW 28 48 15 26 1003.0 1003.8 0.0
25/10:30pm 6.2 -0.6 0.5 67 2.3 NNW 26 41 14 22 1003.0 1003.8 0.0
25/10:11pm 6.0 -1.2 0.6 68 2.2 NNW 28 52 15 28 1003.5 1004.3 0.0
25/10:00pm 5.8 -0.7 0.6 69 2.1 N 24 39 13 21 1003.6 1004.4 0.0
25/09:31pm 5.8 -1.4 0.6 69 2.1 N 28 46 15 25 1003.8 1004.6 0.0
25/09:30pm 5.9 -1.7 0.5 68 2.2 N 30 46 16 25 1003.6 1004.4 0.0
25/09:00pm 6.2 -1.9 -0.1 64 2.6 NNW 32 54 17 29 1003.7 1004.5 0.0
25/08:30pm 6.1 -2.6 -0.2 64 2.5 NNW 35 57 19 31 1003.6 1004.4 0.0
25/08:00pm 6.1 -2.0 -0.2 64 2.6 NNW 32 52 17 28 1003.6 1004.4 0.0
25/07:30pm 6.1 -2.0 -0.6 62 2.7 NNW 32 54 17 29 1003.5 1004.3 0.0
25/07:00pm 6.1 -1.6 -0.2 64 2.6 NNW 30 48 16 26 1003.6 1004.4 0.0
25/06:30pm 6.5 -1.7 0.2 64 2.6 N 33 72 18 39 1003.7 1004.5 0.0
25/06:00pm 6.5 -1.5 0.6 66 2.4 N 32 56 17 30 1003.9 1004.7 0.0
25/05:30pm 6.7 -1.3 0.2 63 2.7 N 32 50 17 27 1003.6 1004.4 0.0
25/05:00pm 6.8 -0.5 -0.2 61 2.9 NNW 28 46 15 25 1003.8 1004.6 0.0
25/04:40pm 7.5 1.6 -0.5 57 3.2 NNW 20 46 11 25 1004.0 1004.9 0.0
25/04:30pm 7.6 2.3 -0.4 57 3.3 NNW 17 35 9 19 1004.3 1005.1 0.0
25/04:04pm 7.8 0.4 -0.4 56 3.3 NNW 28 46 15 25 1004.1 1005.0 0.0
25/04:00pm 7.8 1.2 -0.4 56 3.4 NNW 24 46 13 25 1004.4 1005.2 0.0
25/03:30pm 8.4 1.9 0.4 57 3.3 NW 24 39 13 21 1005.1 1006.0 0.0
25/03:00pm 8.5 2.8 0.5 57 3.4 NNW 20 33 11 18 1005.3 1006.2 0.0
25/02:30pm 8.7 3.2 0.7 57 3.4 NNW 19 32 10 17 1005.7 1006.5 0.0
25/02:03pm 8.9 1.3 0.6 56 3.5 WNW 30 48 16 26 1005.8 1006.6 0.0
25/02:00pm 8.7 0.6 0.7 57 3.4 WNW 33 48 18 26 1005.8 1006.6 0.0
25/01:30pm 8.6 1.0 0.3 56 3.5 WNW 30 54 16 29 1005.9 1006.7 0.0
25/01:24pm 8.6 2.1 0.3 56 3.5 WNW 24 48 13 26 1006.1 1006.9 0.0
25/01:00pm 9.1 4.4 0.6 55 3.6 NW 15 28 8 15 1006.4 1007.3 0.0
25/12:30pm 9.2 4.5 0.9 56 3.5 NNW 15 28 8 15 1006.7 1007.6 0.0
25/12:00pm 9.5 5.5 0.4 53 3.9 NNW 11 20 6 11 1007.1 1007.9 0.0
25/11:30am 8.7 2.5 -0.1 54 3.7 WNW 22 37 12 20 1007.3 1008.1 0.0
25/11:00am 8.3 3.1 0.3 57 3.4 NW 17 30 9 16 1007.5 1008.4 0.0
25/10:30am 7.6 1.9 -1.1 54 3.5 WNW 19 41 10 22 1007.8 1008.7 0.0
25/10:00am 7.7 3.6 -0.5 56 3.3 NNW 11 19 6 10 1007.5 1008.4 0.0
25/09:30am 7.2 3.4 -1.0 56 3.3 NNE 9 15 5 8 1007.4 1008.3 0.0
25/09:00am 6.7 3.3 -0.5 60 2.9 NE 7 13 4 7 1007.2 1008.0 0.0
25/08:30am 5.2 1.3 -1.5 62 2.6 N 9 17 5 9 1006.8 1007.7 0.0
25/08:00am 3.1 -0.8 -1.4 72 1.7 NE 9 17 5 9 1006.4 1007.3 0.0
25/07:30am 2.3 -1.7 -2.4 71 1.7 NNW 9 15 5 8 1006.2 1007.0 0.0
25/07:00am 3.0 -0.4 -2.1 69 1.9 NNW 6 11 3 6 1006.0 1006.8 0.0
25/06:30am 3.3 -1.0 -1.8 69 1.9 NNW 11 19 6 10 1005.3 1006.2 0.0
25/06:00am 3.4 -1.3 -1.5 70 1.9 NNW 13 24 7 13 1005.1 1006.0 0.0
25/05:30am 3.5 -1.6 -1.6 69 1.9 NNW 15 26 8 14 1004.9 1005.7 0.0
25/05:00am 3.0 -2.1 -1.9 70 1.8 N 15 20 8 11 1004.7 1005.5 0.0
25/04:30am 2.3 -1.3 -2.0 73 1.6 NNE 7 11 4 6 1004.6 1005.4 0.0
25/04:00am 2.5 -1.4 -1.5 75 1.5 NNE 9 9 5 5 1004.4 1005.2 0.0
25/03:30am 3.1 -0.3 -2.2 68 2.0 NNE 6 9 3 5 1004.1 1005.0 0.0
25/03:00am 3.5 -0.9 -2.2 66 2.1 NNW 11 17 6 9 1004.1 1005.0 0.0
25/02:30am 3.9 -0.4 -1.7 67 2.1 NW 11 19 6 10 1004.6 1005.4 0.0
25/02:00am 3.8 -1.5 -0.6 73 1.7 N 17 28 9 15 1004.3 1005.1 0.0
25/01:30am 3.4 -1.1 -0.2 77 1.4 N 13 20 7 11 1004.6 1005.4 0.0
25/01:00am 3.6 -1.6 -0.2 76 1.5 NNE 17 22 9 12 1004.7 1005.5 0.0
25/12:30am 4.1 0.0 -0.3 73 1.7 N 11 17 6 9 1004.5 1005.3 0.0
25/12:00am 3.3 -0.8 -0.5 76 1.5 N 11 13 6 7 1004.5 1005.3 0.0
 
Date/Time
EST
Temp
°C
App
Temp
°C
Dew
Point
°C
Rel
Hum
%
Delta-T
°C
Wind Press
QNH
hPa
Press
MSL
hPa
Rain since
9am
mm
Dir  Spd
km/h
Gust
km/h
Spd
kts
Gust
kts
24/11:30pm 3.2 -1.3 -0.4 77 1.4 NNE 13 19 7 10 1004.6 1005.4 0.0
24/11:00pm 2.7 -2.6 -0.4 80 1.2 N 17 20 9 11 1004.8 1005.6 0.0
24/10:30pm 2.8 -2.5 -0.3 80 1.2 N 17 20 9 11 1004.9 1005.7 0.0
24/10:00pm 1.9 -3.0 -0.5 84 0.9 NNE 15 17 8 9 1005.7 1006.5 0.0
24/09:30pm 2.1 -3.2 -0.5 83 1.0 NNE 17 22 9 12 1005.9 1006.7 0.0
24/09:00pm 2.2 -2.7 -0.7 81 1.1 N 15 20 8 11 1006.0 1006.8 0.0
24/08:30pm 2.2 -2.3 -0.5 82 1.0 N 13 17 7 9 1006.1 1006.9 0.0
24/08:00pm 2.0 -2.2 -0.7 82 1.0 NNE 11 13 6 7 1006.4 1007.3 0.0
24/07:30pm 2.6 -2.0 -0.7 79 1.3 NE 13 17 7 9 1006.2 1007.0 0.0
24/07:00pm 2.3 -2.2 -0.4 82 1.0 N 13 17 7 9 1006.5 1007.4 0.0
24/06:30pm 2.4 -1.7 -0.4 82 1.1 NNE 11 15 6 8 1006.7 1007.6 0.0
24/06:00pm 2.9 -0.8 -0.2 80 1.2 NNE 9 13 5 7 1006.5 1007.4 0.0
24/05:30pm 3.8 0.0 -0.6 73 1.7 N 9 15 5 8 1006.4 1007.3 0.0
24/05:00pm 3.7 -0.9 -1.1 71 1.9 N 13 19 7 10 1006.5 1007.4 0.0
24/04:30pm 4.5 0.2 -1.3 66 2.2 NNW 11 17 6 9 1006.5 1007.4 0.0
24/04:00pm 5.0 -0.5 -2.1 60 2.7 NNE 17 26 9 14 1006.3 1007.2 0.0
24/03:30pm 6.3 0.9 -1.6 57 3.1 NW 17 28 9 15 1006.7 1007.6 0.0
24/03:00pm 6.2 0.7 -1.9 56 3.1 NNW 17 26 9 14 1007.1 1007.9 0.0
24/02:30pm 6.5 1.1 -1.2 58 3.0 NW 17 30 9 16 1007.3 1008.1 0.0
24/02:00pm 6.6 0.4 -2.8 51 3.6 WNW 20 35 11 19 1007.5 1008.4 0.0
24/01:30pm 6.5 0.0 -2.1 54 3.3 NW 22 35 12 19 1007.9 1008.8 0.0
24/01:00pm 6.2 1.0 -2.4 54 3.3 NNW 15 28 8 15 1008.5 1009.3 0.0
24/12:30pm 5.3 -0.8 -2.5 57 2.9 NNW 20 32 11 17 1009.1 1010.0 0.0
24/12:00pm 5.1 -0.2 -3.4 54 3.1 NNW 15 32 8 17 1009.5 1010.4 0.0
24/11:30am 4.9 -0.6 -2.2 60 2.7 NNW 17 26 9 14 1010.2 1011.1 0.0
24/11:00am 5.3 -0.7 -1.6 61 2.7 NNW 20 28 11 15 1010.5 1011.4 0.0
24/10:30am 4.6 -0.1 -2.0 62 2.5 NW 13 22 7 12 1010.6 1011.5 0.0
24/10:00am 4.9 -0.3 -2.9 57 2.9 NW 15 24 8 13 1010.6 1011.5 0.0
24/09:30am 4.3 -1.7 -2.8 60 2.6 WNW 19 32 10 17 1010.6 1011.5 0.0
24/09:00am 3.8 -2.2 -3.2 60 2.6 NW 19 33 10 18 1010.6 1011.5 1.2
24/08:30am 3.2 -1.7 -3.4 62 2.4 NNW 13 20 7 11 1010.5 1011.4 1.2
24/08:00am 1.9 -2.7 -4.0 65 2.2 NW 11 13 6 7 1010.3 1011.2 1.2

Other Formats:

Comma delimited format used in spreadsheet applications
http://www.bom.gov.au/fwo/IDV60801/IDV60801.94913.axf

JavaScript Object Notation format (JSON) in row-major order
http://www.bom.gov.au/fwo/IDV60801/IDV60801.94913.json